sensor_id;sensor_type;location;lat;lon;timestamp;temperature;humidity
13472;DHT22;6808;49.444;11.034;2023-04-06T00:00:23;2.20;89.40
13472;DHT22;6808;49.444;11.034;2023-04-06T00:02:48;2.20;89.00
13472;DHT22;6808;49.444;11.034;2023-04-06T00:05:14;2.10;88.90
13472;DHT22;6808;49.444;11.034;2023-04-06T00:07:40;2.10;89.20
13472;DHT22;6808;49.444;11.034;2023-04-06T00:10:06;2.10;89.20
13472;DHT22;6808;49.444;11.034;2023-04-06T00:12:32;2.00;89.60
13472;DHT22;6808;49.444;11.034;2023-04-06T00:14:57;2.10;89.90
13472;DHT22;6808;49.444;11.034;2023-04-06T00:17:23;2.10;90.00
13472;DHT22;6808;49.444;11.034;2023-04-06T00:19:48;2.00;89.80
13472;DHT22;6808;49.444;11.034;2023-04-06T00:22:14;2.00;90.10
13472;DHT22;6808;49.444;11.034;2023-04-06T00:24:40;2.00;90.10
13472;DHT22;6808;49.444;11.034;2023-04-06T00:27:05;2.00;90.20
13472;DHT22;6808;49.444;11.034;2023-04-06T00:29:31;1.90;90.10
13472;DHT22;6808;49.444;11.034;2023-04-06T00:31:56;1.90;90.20
13472;DHT22;6808;49.444;11.034;2023-04-06T00:34:22;1.90;90.20
13472;DHT22;6808;49.444;11.034;2023-04-06T00:36:47;1.90;90.30
13472;DHT22;6808;49.444;11.034;2023-04-06T00:39:13;1.90;90.50
13472;DHT22;6808;49.444;11.034;2023-04-06T00:41:39;1.80;90.30
13472;DHT22;6808;49.444;11.034;2023-04-06T00:44:07;1.80;90.40
13472;DHT22;6808;49.444;11.034;2023-04-06T00:46:32;1.80;90.50
13472;DHT22;6808;49.444;11.034;2023-04-06T00:48:58;1.80;90.30
13472;DHT22;6808;49.444;11.034;2023-04-06T00:51:23;1.70;90.20
13472;DHT22;6808;49.444;11.034;2023-04-06T00:53:49;1.70;90.10
13472;DHT22;6808;49.444;11.034;2023-04-06T00:56:14;1.60;90.40
13472;DHT22;6808;49.444;11.034;2023-04-06T00:58:40;1.60;90.50
13472;DHT22;6808;49.444;11.034;2023-04-06T01:01:06;1.60;90.40
13472;DHT22;6808;49.444;11.034;2023-04-06T01:03:31;1.60;90.50
13472;DHT22;6808;49.444;11.034;2023-04-06T01:05:57;1.60;90.70
13472;DHT22;6808;49.444;11.034;2023-04-06T01:08:24;1.60;90.70
13472;DHT22;6808;49.444;11.034;2023-04-06T01:10:49;1.60;90.80
13472;DHT22;6808;49.444;11.034;2023-04-06T01:13:15;1.60;90.60
13472;DHT22;6808;49.444;11.034;2023-04-06T01:15:42;1.50;90.40
13472;DHT22;6808;49.444;11.034;2023-04-06T01:18:10;1.50;90.50
13472;DHT22;6808;49.444;11.034;2023-04-06T01:20:36;1.40;90.60
13472;DHT22;6808;49.444;11.034;2023-04-06T01:23:01;1.30;90.90
13472;DHT22;6808;49.444;11.034;2023-04-06T01:25:27;1.30;91.30
13472;DHT22;6808;49.444;11.034;2023-04-06T01:27:53;1.30;91.40
13472;DHT22;6808;49.444;11.034;2023-04-06T01:30:18;1.30;91.50
13472;DHT22;6808;49.444;11.034;2023-04-06T01:32:44;1.30;91.40
13472;DHT22;6808;49.444;11.034;2023-04-06T01:35:10;1.30;91.40
13472;DHT22;6808;49.444;11.034;2023-04-06T01:37:36;0.70;91.00
13472;DHT22;6808;49.444;11.034;2023-04-06T01:40:02;1.30;91.50
13472;DHT22;6808;49.444;11.034;2023-04-06T01:42:28;1.30;91.40
13472;DHT22;6808;49.444;11.034;2023-04-06T01:44:53;1.20;91.30
13472;DHT22;6808;49.444;11.034;2023-04-06T01:47:19;1.20;91.30
13472;DHT22;6808;49.444;11.034;2023-04-06T01:49:44;1.10;91.40
13472;DHT22;6808;49.444;11.034;2023-04-06T01:52:10;1.10;91.50
13472;DHT22;6808;49.444;11.034;2023-04-06T01:54:36;1.10;91.60
13472;DHT22;6808;49.444;11.034;2023-04-06T01:57:01;1.10;91.80
13472;DHT22;6808;49.444;11.034;2023-04-06T01:59:27;1.10;91.70
13472;DHT22;6808;49.444;11.034;2023-04-06T02:01:53;1.00;91.60
13472;DHT22;6808;49.444;11.034;2023-04-06T02:04:18;0.90;91.70
13472;DHT22;6808;49.444;11.034;2023-04-06T02:06:44;0.90;91.80
13472;DHT22;6808;49.444;11.034;2023-04-06T02:09:09;0.90;91.80
13472;DHT22;6808;49.444;11.034;2023-04-06T02:11:35;0.80;91.70
13472;DHT22;6808;49.444;11.034;2023-04-06T02:14:01;0.70;91.50
13472;DHT22;6808;49.444;11.034;2023-04-06T02:16:26;0.70;91.20
13472;DHT22;6808;49.444;11.034;2023-04-06T02:18:52;0.80;91.20
13472;DHT22;6808;49.444;11.034;2023-04-06T02:21:17;0.80;91.10
13472;DHT22;6808;49.444;11.034;2023-04-06T02:23:46;0.80;91.00
13472;DHT22;6808;49.444;11.034;2023-04-06T02:26:12;0.90;91.10
13472;DHT22;6808;49.444;11.034;2023-04-06T02:28:37;0.90;91.30
13472;DHT22;6808;49.444;11.034;2023-04-06T02:31:03;0.90;91.30
13472;DHT22;6808;49.444;11.034;2023-04-06T02:33:28;0.90;91.50
13472;DHT22;6808;49.444;11.034;2023-04-06T02:35:54;0.90;91.40
13472;DHT22;6808;49.444;11.034;2023-04-06T02:38:20;0.90;91.30
13472;DHT22;6808;49.444;11.034;2023-04-06T02:40:45;0.90;91.50
13472;DHT22;6808;49.444;11.034;2023-04-06T02:43:11;0.90;91.50
13472;DHT22;6808;49.444;11.034;2023-04-06T02:45:36;0.90;91.30
13472;DHT22;6808;49.444;11.034;2023-04-06T02:48:02;1.00;91.50
13472;DHT22;6808;49.444;11.034;2023-04-06T02:50:28;0.90;91.40
13472;DHT22;6808;49.444;11.034;2023-04-06T02:52:53;0.90;91.50
13472;DHT22;6808;49.444;11.034;2023-04-06T02:55:19;0.90;91.50
13472;DHT22;6808;49.444;11.034;2023-04-06T02:57:45;0.90;91.40
13472;DHT22;6808;49.444;11.034;2023-04-06T03:00:11;0.90;91.20
13472;DHT22;6808;49.444;11.034;2023-04-06T03:02:37;0.70;90.80
13472;DHT22;6808;49.444;11.034;2023-04-06T03:05:03;0.50;91.00
13472;DHT22;6808;49.444;11.034;2023-04-06T03:07:29;0.50;91.30
13472;DHT22;6808;49.444;11.034;2023-04-06T03:09:55;0.50;91.30
13472;DHT22;6808;49.444;11.034;2023-04-06T03:12:20;0.50;91.40
13472;DHT22;6808;49.444;11.034;2023-04-06T03:14:46;0.50;91.80
13472;DHT22;6808;49.444;11.034;2023-04-06T03:17:11;0.40;91.70
13472;DHT22;6808;49.444;11.034;2023-04-06T03:19:37;0.50;91.90
13472;DHT22;6808;49.444;11.034;2023-04-06T03:22:03;0.50;91.90
13472;DHT22;6808;49.444;11.034;2023-04-06T03:24:28;0.60;92.20
13472;DHT22;6808;49.444;11.034;2023-04-06T03:26:54;0.60;92.30
13472;DHT22;6808;49.444;11.034;2023-04-06T03:29:20;0.60;91.90
13472;DHT22;6808;49.444;11.034;2023-04-06T03:31:45;0.70;91.80
13472;DHT22;6808;49.444;11.034;2023-04-06T03:34:11;0.70;91.80
13472;DHT22;6808;49.444;11.034;2023-04-06T03:36:36;0.70;91.70
13472;DHT22;6808;49.444;11.034;2023-04-06T03:39:03;0.70;91.80
13472;DHT22;6808;49.444;11.034;2023-04-06T03:41:28;0.70;91.90
13472;DHT22;6808;49.444;11.034;2023-04-06T03:43:54;0.60;91.80
13472;DHT22;6808;49.444;11.034;2023-04-06T03:46:19;0.60;91.80
13472;DHT22;6808;49.444;11.034;2023-04-06T03:48:48;0.50;91.70
13472;DHT22;6808;49.444;11.034;2023-04-06T03:51:13;0.50;91.90
13472;DHT22;6808;49.444;11.034;2023-04-06T03:53:39;0.50;92.00
13472;DHT22;6808;49.444;11.034;2023-04-06T03:56:05;0.40;92.10
13472;DHT22;6808;49.444;11.034;2023-04-06T03:58:31;0.40;92.10
13472;DHT22;6808;49.444;11.034;2023-04-06T04:00:56;0.30;92.20
13472;DHT22;6808;49.444;11.034;2023-04-06T04:03:22;0.30;92.30
13472;DHT22;6808;49.444;11.034;2023-04-06T04:05:49;0.30;92.40
13472;DHT22;6808;49.444;11.034;2023-04-06T04:08:15;0.30;92.40
13472;DHT22;6808;49.444;11.034;2023-04-06T04:10:41;0.30;92.40
13472;DHT22;6808;49.444;11.034;2023-04-06T04:13:06;0.20;92.50
13472;DHT22;6808;49.444;11.034;2023-04-06T04:15:32;0.20;92.50
13472;DHT22;6808;49.444;11.034;2023-04-06T04:17:57;0.20;92.60
13472;DHT22;6808;49.444;11.034;2023-04-06T04:20:23;0.30;92.70
13472;DHT22;6808;49.444;11.034;2023-04-06T04:22:48;0.30;92.80
13472;DHT22;6808;49.444;11.034;2023-04-06T04:25:14;0.30;92.70
13472;DHT22;6808;49.444;11.034;2023-04-06T04:27:40;0.30;92.50
13472;DHT22;6808;49.444;11.034;2023-04-06T04:30:06;0.30;92.70
13472;DHT22;6808;49.444;11.034;2023-04-06T04:32:32;0.30;92.80
13472;DHT22;6808;49.444;11.034;2023-04-06T04:34:58;0.30;93.00
13472;DHT22;6808;49.444;11.034;2023-04-06T04:37:23;0.30;92.90
13472;DHT22;6808;49.444;11.034;2023-04-06T04:39:49;0.30;92.90
13472;DHT22;6808;49.444;11.034;2023-04-06T04:42:15;0.40;93.00
13472;DHT22;6808;49.444;11.034;2023-04-06T04:44:40;0.40;93.10
13472;DHT22;6808;49.444;11.034;2023-04-06T04:47:06;0.40;93.10
13472;DHT22;6808;49.444;11.034;2023-04-06T04:49:32;0.40;93.10
13472;DHT22;6808;49.444;11.034;2023-04-06T04:51:57;0.40;92.90
13472;DHT22;6808;49.444;11.034;2023-04-06T04:54:23;0.40;92.90
13472;DHT22;6808;49.444;11.034;2023-04-06T04:56:48;0.40;92.90
13472;DHT22;6808;49.444;11.034;2023-04-06T04:59:14;0.40;93.00
13472;DHT22;6808;49.444;11.034;2023-04-06T05:01:39;0.40;93.00
13472;DHT22;6808;49.444;11.034;2023-04-06T05:04:05;0.40;93.40
13472;DHT22;6808;49.444;11.034;2023-04-06T05:06:30;0.40;93.10
13472;DHT22;6808;49.444;11.034;2023-04-06T05:08:56;0.40;93.10
13472;DHT22;6808;49.444;11.034;2023-04-06T05:11:22;0.40;93.00
13472;DHT22;6808;49.444;11.034;2023-04-06T05:13:47;0.40;93.10
13472;DHT22;6808;49.444;11.034;2023-04-06T05:16:13;0.40;93.20
13472;DHT22;6808;49.444;11.034;2023-04-06T05:18:38;0.40;93.50
13472;DHT22;6808;49.444;11.034;2023-04-06T05:21:04;0.70;93.70
13472;DHT22;6808;49.444;11.034;2023-04-06T05:23:30;1.00;93.20
13472;DHT22;6808;49.444;11.034;2023-04-06T05:25:55;1.10;92.50
13472;DHT22;6808;49.444;11.034;2023-04-06T05:28:22;1.00;91.90
13472;DHT22;6808;49.444;11.034;2023-04-06T05:30:47;1.00;92.10
13472;DHT22;6808;49.444;11.034;2023-04-06T05:33:13;0.90;92.30
13472;DHT22;6808;49.444;11.034;2023-04-06T05:35:38;0.80;92.60
13472;DHT22;6808;49.444;11.034;2023-04-06T05:38:07;0.70;92.60
13472;DHT22;6808;49.444;11.034;2023-04-06T05:40:33;0.70;92.70
13472;DHT22;6808;49.444;11.034;2023-04-06T05:42:58;0.80;92.80
13472;DHT22;6808;49.444;11.034;2023-04-06T05:45:24;0.80;92.60
13472;DHT22;6808;49.444;11.034;2023-04-06T05:47:49;0.70;92.60
13472;DHT22;6808;49.444;11.034;2023-04-06T05:50:15;0.80;92.90
13472;DHT22;6808;49.444;11.034;2023-04-06T05:52:41;0.80;92.80
13472;DHT22;6808;49.444;11.034;2023-04-06T05:55:09;0.80;92.90
13472;DHT22;6808;49.444;11.034;2023-04-06T05:57:35;0.80;92.70
13472;DHT22;6808;49.444;11.034;2023-04-06T06:00:00;0.70;92.10
13472;DHT22;6808;49.444;11.034;2023-04-06T06:02:26;0.70;92.30
13472;DHT22;6808;49.444;11.034;2023-04-06T06:04:51;1.20;92.50
13472;DHT22;6808;49.444;11.034;2023-04-06T06:07:17;0.80;92.20
13472;DHT22;6808;49.444;11.034;2023-04-06T06:09:43;0.80;92.20
13472;DHT22;6808;49.444;11.034;2023-04-06T06:12:08;0.90;92.00
13472;DHT22;6808;49.444;11.034;2023-04-06T06:14:34;0.90;91.90
13472;DHT22;6808;49.444;11.034;2023-04-06T06:17:00;0.90;91.90
13472;DHT22;6808;49.444;11.034;2023-04-06T06:19:25;1.00;92.00
13472;DHT22;6808;49.444;11.034;2023-04-06T06:21:51;1.00;91.90
13472;DHT22;6808;49.444;11.034;2023-04-06T06:24:16;1.10;92.00
13472;DHT22;6808;49.444;11.034;2023-04-06T06:26:42;1.10;91.90
13472;DHT22;6808;49.444;11.034;2023-04-06T06:29:08;1.10;91.70
13472;DHT22;6808;49.444;11.034;2023-04-06T06:31:34;1.20;91.60
13472;DHT22;6808;49.444;11.034;2023-04-06T06:34:00;1.20;91.30
13472;DHT22;6808;49.444;11.034;2023-04-06T06:36:27;1.30;91.30
13472;DHT22;6808;49.444;11.034;2023-04-06T06:38:53;1.30;91.30
13472;DHT22;6808;49.444;11.034;2023-04-06T06:41:18;1.40;91.40
13472;DHT22;6808;49.444;11.034;2023-04-06T06:43:44;1.40;91.40
13472;DHT22;6808;49.444;11.034;2023-04-06T06:46:09;1.40;91.40
13472;DHT22;6808;49.444;11.034;2023-04-06T06:48:35;1.60;91.00
13472;DHT22;6808;49.444;11.034;2023-04-06T06:51:01;1.70;90.60
13472;DHT22;6808;49.444;11.034;2023-04-06T06:53:26;1.80;90.40
13472;DHT22;6808;49.444;11.034;2023-04-06T06:55:52;1.90;90.10
13472;DHT22;6808;49.444;11.034;2023-04-06T06:58:19;2.00;89.30
13472;DHT22;6808;49.444;11.034;2023-04-06T07:00:45;2.20;88.40
13472;DHT22;6808;49.444;11.034;2023-04-06T07:03:11;2.30;87.80
13472;DHT22;6808;49.444;11.034;2023-04-06T07:05:37;2.60;85.80
13472;DHT22;6808;49.444;11.034;2023-04-06T07:08:02;2.80;84.30
13472;DHT22;6808;49.444;11.034;2023-04-06T07:10:28;3.00;84.00
13472;DHT22;6808;49.444;11.034;2023-04-06T07:12:53;3.10;83.40
13472;DHT22;6808;49.444;11.034;2023-04-06T07:15:19;3.30;83.10
13472;DHT22;6808;49.444;11.034;2023-04-06T07:17:45;3.40;81.60
13472;DHT22;6808;49.444;11.034;2023-04-06T07:20:11;3.60;81.70
13472;DHT22;6808;49.444;11.034;2023-04-06T07:22:42;3.70;80.40
13472;DHT22;6808;49.444;11.034;2023-04-06T07:25:08;3.80;79.60
13472;DHT22;6808;49.444;11.034;2023-04-06T07:27:34;3.80;78.80
13472;DHT22;6808;49.444;11.034;2023-04-06T07:30:00;3.90;79.00
13472;DHT22;6808;49.444;11.034;2023-04-06T07:32:25;4.00;79.50
13472;DHT22;6808;49.444;11.034;2023-04-06T07:34:51;4.20;77.80
13472;DHT22;6808;49.444;11.034;2023-04-06T07:37:16;4.30;77.30
13472;DHT22;6808;49.444;11.034;2023-04-06T07:39:42;4.40;76.90
13472;DHT22;6808;49.444;11.034;2023-04-06T07:42:07;4.50;77.60
13472;DHT22;6808;49.444;11.034;2023-04-06T07:44:33;4.60;76.90
13472;DHT22;6808;49.444;11.034;2023-04-06T07:46:59;4.70;76.90
13472;DHT22;6808;49.444;11.034;2023-04-06T07:49:24;4.80;74.80
13472;DHT22;6808;49.444;11.034;2023-04-06T07:51:50;4.90;75.70
13472;DHT22;6808;49.444;11.034;2023-04-06T07:54:15;4.90;74.50
13472;DHT22;6808;49.444;11.034;2023-04-06T07:56:41;4.90;74.10
13472;DHT22;6808;49.444;11.034;2023-04-06T07:59:06;5.10;72.70
13472;DHT22;6808;49.444;11.034;2023-04-06T08:01:32;5.20;72.80
13472;DHT22;6808;49.444;11.034;2023-04-06T08:03:58;5.30;73.90
13472;DHT22;6808;49.444;11.034;2023-04-06T08:06:24;5.30;72.30
13472;DHT22;6808;49.444;11.034;2023-04-06T08:08:49;5.50;71.80
13472;DHT22;6808;49.444;11.034;2023-04-06T08:11:15;5.60;71.00
13472;DHT22;6808;49.444;11.034;2023-04-06T08:13:40;5.60;70.60
13472;DHT22;6808;49.444;11.034;2023-04-06T08:16:07;5.70;72.10
13472;DHT22;6808;49.444;11.034;2023-04-06T08:18:32;5.70;70.80
13472;DHT22;6808;49.444;11.034;2023-04-06T08:20:58;5.90;69.10
13472;DHT22;6808;49.444;11.034;2023-04-06T08:23:24;5.90;68.90
13472;DHT22;6808;49.444;11.034;2023-04-06T08:25:49;5.90;68.40
13472;DHT22;6808;49.444;11.034;2023-04-06T08:28:15;6.00;67.00
13472;DHT22;6808;49.444;11.034;2023-04-06T08:30:41;6.10;67.70
13472;DHT22;6808;49.444;11.034;2023-04-06T08:33:07;6.20;66.10
13472;DHT22;6808;49.444;11.034;2023-04-06T08:35:33;6.30;64.40
13472;DHT22;6808;49.444;11.034;2023-04-06T08:37:58;6.50;64.00
13472;DHT22;6808;49.444;11.034;2023-04-06T08:40:24;6.60;64.30
13472;DHT22;6808;49.444;11.034;2023-04-06T08:42:53;6.60;63.60
13472;DHT22;6808;49.444;11.034;2023-04-06T08:45:19;6.70;61.10
13472;DHT22;6808;49.444;11.034;2023-04-06T08:47:49;6.80;59.80
13472;DHT22;6808;49.444;11.034;2023-04-06T08:50:16;7.00;59.80
13472;DHT22;6808;49.444;11.034;2023-04-06T08:52:43;7.10;59.80
13472;DHT22;6808;49.444;11.034;2023-04-06T08:55:09;7.10;59.40
13472;DHT22;6808;49.444;11.034;2023-04-06T08:57:36;7.20;58.80
13472;DHT22;6808;49.444;11.034;2023-04-06T09:00:02;7.30;59.50
13472;DHT22;6808;49.444;11.034;2023-04-06T09:02:27;7.40;59.70
13472;DHT22;6808;49.444;11.034;2023-04-06T09:04:54;7.50;59.20
13472;DHT22;6808;49.444;11.034;2023-04-06T09:07:20;7.50;59.00
13472;DHT22;6808;49.444;11.034;2023-04-06T09:09:46;7.50;58.40
13472;DHT22;6808;49.444;11.034;2023-04-06T09:12:28;7.50;58.00
13472;DHT22;6808;49.444;11.034;2023-04-06T09:14:55;7.60;60.10
13472;DHT22;6808;49.444;11.034;2023-04-06T09:17:22;7.70;59.20
13472;DHT22;6808;49.444;11.034;2023-04-06T09:19:48;7.80;57.00
13472;DHT22;6808;49.444;11.034;2023-04-06T09:22:14;7.90;56.20
13472;DHT22;6808;49.444;11.034;2023-04-06T09:24:53;8.00;56.50
13472;DHT22;6808;49.444;11.034;2023-04-06T09:27:32;8.20;57.50
13472;DHT22;6808;49.444;11.034;2023-04-06T09:32:32;8.20;53.60
13472;DHT22;6808;49.444;11.034;2023-04-06T09:35:10;8.30;54.10
13472;DHT22;6808;49.444;11.034;2023-04-06T09:37:35;8.30;55.80
13472;DHT22;6808;49.444;11.034;2023-04-06T09:40:05;8.40;53.90
13472;DHT22;6808;49.444;11.034;2023-04-06T09:42:32;8.20;52.80
13472;DHT22;6808;49.444;11.034;2023-04-06T09:44:59;8.30;54.10
13472;DHT22;6808;49.444;11.034;2023-04-06T09:47:32;8.40;52.90
13472;DHT22;6808;49.444;11.034;2023-04-06T09:49:59;8.50;53.20
13472;DHT22;6808;49.444;11.034;2023-04-06T09:52:42;8.60;50.40
13472;DHT22;6808;49.444;11.034;2023-04-06T09:55:09;8.70;51.00
13472;DHT22;6808;49.444;11.034;2023-04-06T09:57:48;8.70;52.30
13472;DHT22;6808;49.444;11.034;2023-04-06T10:00:17;8.90;51.30
13472;DHT22;6808;49.444;11.034;2023-04-06T10:02:56;8.90;50.00
13472;DHT22;6808;49.444;11.034;2023-04-06T10:05:42;9.10;50.90
13472;DHT22;6808;49.444;11.034;2023-04-06T10:08:09;9.20;49.30
13472;DHT22;6808;49.444;11.034;2023-04-06T10:10:36;9.20;50.00
13472;DHT22;6808;49.444;11.034;2023-04-06T10:13:03;9.30;50.80
13472;DHT22;6808;49.444;11.034;2023-04-06T10:15:29;9.50;51.70
13472;DHT22;6808;49.444;11.034;2023-04-06T10:17:57;9.60;49.20
13472;DHT22;6808;49.444;11.034;2023-04-06T10:22:53;9.60;49.40
13472;DHT22;6808;49.444;11.034;2023-04-06T10:25:29;9.90;50.10
13472;DHT22;6808;49.444;11.034;2023-04-06T10:28:08;9.80;47.10
13472;DHT22;6808;49.444;11.034;2023-04-06T10:30:36;9.60;46.30
13472;DHT22;6808;49.444;11.034;2023-04-06T10:33:18;9.60;46.10
13472;DHT22;6808;49.444;11.034;2023-04-06T10:35:44;9.70;47.20
13472;DHT22;6808;49.444;11.034;2023-04-06T10:38:10;9.80;47.50
13472;DHT22;6808;49.444;11.034;2023-04-06T10:40:39;10.20;47.50
13472;DHT22;6808;49.444;11.034;2023-04-06T10:43:19;10.30;45.00
13472;DHT22;6808;49.444;11.034;2023-04-06T10:45:56;10.30;43.50
13472;DHT22;6808;49.444;11.034;2023-04-06T10:48:23;10.10;41.80
13472;DHT22;6808;49.444;11.034;2023-04-06T10:50:51;10.30;44.60
13472;DHT22;6808;49.444;11.034;2023-04-06T10:53:22;10.40;43.50
13472;DHT22;6808;49.444;11.034;2023-04-06T10:55:50;10.70;47.40
13472;DHT22;6808;49.444;11.034;2023-04-06T10:58:16;10.90;45.50
13472;DHT22;6808;49.444;11.034;2023-04-06T11:00:48;11.10;44.60
13472;DHT22;6808;49.444;11.034;2023-04-06T11:03:15;11.30;42.90
13472;DHT22;6808;49.444;11.034;2023-04-06T11:05:48;11.40;43.10
13472;DHT22;6808;49.444;11.034;2023-04-06T11:08:32;11.40;43.10
13472;DHT22;6808;49.444;11.034;2023-04-06T11:11:15;11.20;43.80
13472;DHT22;6808;49.444;11.034;2023-04-06T11:13:56;11.40;43.70
13472;DHT22;6808;49.444;11.034;2023-04-06T11:16:28;11.50;43.00
13472;DHT22;6808;49.444;11.034;2023-04-06T11:18:57;11.70;41.60
13472;DHT22;6808;49.444;11.034;2023-04-06T11:21:39;11.70;41.60
13472;DHT22;6808;49.444;11.034;2023-04-06T11:24:13;11.70;41.20
13472;DHT22;6808;49.444;11.034;2023-04-06T11:26:49;11.60;40.50
13472;DHT22;6808;49.444;11.034;2023-04-06T11:29:21;11.70;42.00
13472;DHT22;6808;49.444;11.034;2023-04-06T11:31:51;11.90;40.70
13472;DHT22;6808;49.444;11.034;2023-04-06T11:34:20;11.80;38.50
13472;DHT22;6808;49.444;11.034;2023-04-06T11:36:48;11.90;41.50
13472;DHT22;6808;49.444;11.034;2023-04-06T11:39:19;12.10;40.40
13472;DHT22;6808;49.444;11.034;2023-04-06T11:41:53;12.00;38.90
13472;DHT22;6808;49.444;11.034;2023-04-06T11:44:40;12.10;40.50
13472;DHT22;6808;49.444;11.034;2023-04-06T11:47:08;12.10;40.00
13472;DHT22;6808;49.444;11.034;2023-04-06T11:49:37;12.40;39.80
13472;DHT22;6808;49.444;11.034;2023-04-06T11:52:02;12.80;42.10
13472;DHT22;6808;49.444;11.034;2023-04-06T11:54:36;13.00;40.60
13472;DHT22;6808;49.444;11.034;2023-04-06T11:57:04;12.70;38.00
13472;DHT22;6808;49.444;11.034;2023-04-06T11:59:30;12.80;39.80
13472;DHT22;6808;49.444;11.034;2023-04-06T12:01:57;12.70;38.60
13472;DHT22;6808;49.444;11.034;2023-04-06T12:04:23;12.80;39.20
13472;DHT22;6808;49.444;11.034;2023-04-06T12:06:48;12.90;38.60
13472;DHT22;6808;49.444;11.034;2023-04-06T12:09:15;13.30;40.50
13472;DHT22;6808;49.444;11.034;2023-04-06T12:11:40;13.40;40.20
13472;DHT22;6808;49.444;11.034;2023-04-06T12:14:06;13.80;40.40
13472;DHT22;6808;49.444;11.034;2023-04-06T12:16:33;13.80;37.10
13472;DHT22;6808;49.444;11.034;2023-04-06T12:18:59;14.10;38.90
13472;DHT22;6808;49.444;11.034;2023-04-06T12:21:27;13.50;37.00
13472;DHT22;6808;49.444;11.034;2023-04-06T12:23:54;12.80;35.40
13472;DHT22;6808;49.444;11.034;2023-04-06T12:26:20;12.50;38.10
13472;DHT22;6808;49.444;11.034;2023-04-06T12:28:46;12.90;38.80
13472;DHT22;6808;49.444;11.034;2023-04-06T12:31:16;13.20;38.10
13472;DHT22;6808;49.444;11.034;2023-04-06T12:33:42;13.20;36.80
13472;DHT22;6808;49.444;11.034;2023-04-06T12:36:12;13.10;35.90
13472;DHT22;6808;49.444;11.034;2023-04-06T12:38:38;12.90;37.40
13472;DHT22;6808;49.444;11.034;2023-04-06T12:41:06;12.90;38.70
13472;DHT22;6808;49.444;11.034;2023-04-06T12:43:32;13.80;38.40
13472;DHT22;6808;49.444;11.034;2023-04-06T12:45:57;13.50;37.30
13472;DHT22;6808;49.444;11.034;2023-04-06T12:48:24;13.50;37.90
13472;DHT22;6808;49.444;11.034;2023-04-06T12:50:55;13.70;36.90
13472;DHT22;6808;49.444;11.034;2023-04-06T12:53:21;13.70;36.40
13472;DHT22;6808;49.444;11.034;2023-04-06T12:55:47;13.90;38.30
13472;DHT22;6808;49.444;11.034;2023-04-06T12:58:12;14.10;35.60
13472;DHT22;6808;49.444;11.034;2023-04-06T13:00:38;14.00;34.90
13472;DHT22;6808;49.444;11.034;2023-04-06T13:03:04;14.00;35.50
13472;DHT22;6808;49.444;11.034;2023-04-06T13:05:30;14.00;34.90
13472;DHT22;6808;49.444;11.034;2023-04-06T13:07:55;13.80;35.40
13472;DHT22;6808;49.444;11.034;2023-04-06T13:10:24;13.80;35.70
13472;DHT22;6808;49.444;11.034;2023-04-06T13:12:50;13.80;36.00
13472;DHT22;6808;49.444;11.034;2023-04-06T13:15:16;14.10;35.50
13472;DHT22;6808;49.444;11.034;2023-04-06T13:17:42;14.00;34.50
13472;DHT22;6808;49.444;11.034;2023-04-06T13:20:08;14.00;34.60
13472;DHT22;6808;49.444;11.034;2023-04-06T13:22:34;13.80;33.20
13472;DHT22;6808;49.444;11.034;2023-04-06T13:24:59;13.50;33.90
13472;DHT22;6808;49.444;11.034;2023-04-06T13:27:25;13.70;35.70
13472;DHT22;6808;49.444;11.034;2023-04-06T13:29:53;14.00;35.20
13472;DHT22;6808;49.444;11.034;2023-04-06T13:32:18;14.20;35.80
13472;DHT22;6808;49.444;11.034;2023-04-06T13:34:44;14.40;35.90
13472;DHT22;6808;49.444;11.034;2023-04-06T13:37:12;14.70;35.10
13472;DHT22;6808;49.444;11.034;2023-04-06T13:39:38;14.60;34.50
13472;DHT22;6808;49.444;11.034;2023-04-06T13:42:04;14.50;33.80
13472;DHT22;6808;49.444;11.034;2023-04-06T13:44:29;14.50;33.20
13472;DHT22;6808;49.444;11.034;2023-04-06T13:46:56;14.60;32.70
13472;DHT22;6808;49.444;11.034;2023-04-06T13:49:22;14.70;33.50
13472;DHT22;6808;49.444;11.034;2023-04-06T13:51:47;14.60;33.20
13472;DHT22;6808;49.444;11.034;2023-04-06T13:54:13;14.70;34.60
13472;DHT22;6808;49.444;11.034;2023-04-06T13:56:39;14.70;33.60
13472;DHT22;6808;49.444;11.034;2023-04-06T13:59:04;14.80;34.60
13472;DHT22;6808;49.444;11.034;2023-04-06T14:01:30;15.00;34.70
13472;DHT22;6808;49.444;11.034;2023-04-06T14:03:56;14.90;33.70
13472;DHT22;6808;49.444;11.034;2023-04-06T14:06:22;14.80;34.00
13472;DHT22;6808;49.444;11.034;2023-04-06T14:08:48;14.70;32.80
13472;DHT22;6808;49.444;11.034;2023-04-06T14:11:13;14.70;35.80
13472;DHT22;6808;49.444;11.034;2023-04-06T14:13:40;14.80;33.30
13472;DHT22;6808;49.444;11.034;2023-04-06T14:16:06;14.70;33.20
13472;DHT22;6808;49.444;11.034;2023-04-06T14:18:33;14.50;32.30
13472;DHT22;6808;49.444;11.034;2023-04-06T14:21:00;13.90;32.40
13472;DHT22;6808;49.444;11.034;2023-04-06T14:23:27;13.90;33.20
13472;DHT22;6808;49.444;11.034;2023-04-06T14:26:07;14.00;33.20
13472;DHT22;6808;49.444;11.034;2023-04-06T14:28:35;14.00;33.30
13472;DHT22;6808;49.444;11.034;2023-04-06T14:31:02;14.20;35.50
13472;DHT22;6808;49.444;11.034;2023-04-06T14:33:30;14.30;33.50
13472;DHT22;6808;49.444;11.034;2023-04-06T14:35:56;14.30;34.80
13472;DHT22;6808;49.444;11.034;2023-04-06T14:38:22;14.50;35.20
13472;DHT22;6808;49.444;11.034;2023-04-06T14:40:48;14.50;34.20
13472;DHT22;6808;49.444;11.034;2023-04-06T14:43:14;14.60;34.20
13472;DHT22;6808;49.444;11.034;2023-04-06T14:45:40;14.60;34.20
13472;DHT22;6808;49.444;11.034;2023-04-06T14:48:06;14.20;31.30
13472;DHT22;6808;49.444;11.034;2023-04-06T14:50:32;14.10;32.00
13472;DHT22;6808;49.444;11.034;2023-04-06T14:52:59;14.00;32.80
13472;DHT22;6808;49.444;11.034;2023-04-06T14:55:26;14.20;34.00
13472;DHT22;6808;49.444;11.034;2023-04-06T14:57:52;14.20;32.80
13472;DHT22;6808;49.444;11.034;2023-04-06T15:00:17;14.20;33.70
13472;DHT22;6808;49.444;11.034;2023-04-06T15:02:43;14.20;33.60
13472;DHT22;6808;49.444;11.034;2023-04-06T15:05:09;14.40;33.30
13472;DHT22;6808;49.444;11.034;2023-04-06T15:07:34;14.40;32.90
13472;DHT22;6808;49.444;11.034;2023-04-06T15:10:00;14.40;31.40
13472;DHT22;6808;49.444;11.034;2023-04-06T15:12:26;14.40;31.20
13472;DHT22;6808;49.444;11.034;2023-04-06T15:14:52;14.40;32.90
13472;DHT22;6808;49.444;11.034;2023-04-06T15:17:17;14.40;32.60
13472;DHT22;6808;49.444;11.034;2023-04-06T15:19:43;14.40;33.20
13472;DHT22;6808;49.444;11.034;2023-04-06T15:22:10;14.40;32.00
13472;DHT22;6808;49.444;11.034;2023-04-06T15:24:36;14.40;32.30
13472;DHT22;6808;49.444;11.034;2023-04-06T15:27:02;14.30;32.50
13472;DHT22;6808;49.444;11.034;2023-04-06T15:29:29;14.20;31.10
13472;DHT22;6808;49.444;11.034;2023-04-06T15:31:55;14.20;31.90
13472;DHT22;6808;49.444;11.034;2023-04-06T15:34:22;14.10;32.10
13472;DHT22;6808;49.444;11.034;2023-04-06T15:36:47;14.10;31.90
13472;DHT22;6808;49.444;11.034;2023-04-06T15:39:15;14.00;31.40
13472;DHT22;6808;49.444;11.034;2023-04-06T15:41:41;14.00;31.00